sensor_id;sensor_type;location;lat;lon;timestamp;pressure;altitude;pressure_sealevel;temperature;humidity
76046;BME280;64741;41.730;44.788;2023-02-14T00:01:53;1001;;;21;35.9
76046;BME280;64741;41.730;44.788;2023-02-14T00:06:53;1001;;;21;35.8
76046;BME280;64741;41.730;44.788;2023-02-14T00:11:53;1001;;;21;35.2
76046;BME280;64741;41.730;44.788;2023-02-14T00:16:53;1001;;;21;35.1
76046;BME280;64741;41.730;44.788;2023-02-14T00:21:51;1001;;;21;35.4
76046;BME280;64741;41.730;44.788;2023-02-14T00:26:49;1001;;;21;35.5
76046;BME280;64741;41.730;44.788;2023-02-14T00:31:52;1001;;;21;35.5
76046;BME280;64741;41.730;44.788;2023-02-14T00:36:49;1000.9;;;21;35.4
76046;BME280;64741;41.730;44.788;2023-02-14T00:41:53;1000.9;;;20.9;35.5
76046;BME280;64741;41.730;44.788;2023-02-14T00:46:53;1000.9;;;20.9;35.4
76046;BME280;64741;41.730;44.788;2023-02-14T00:51:53;1000.9;;;20.9;35
76046;BME280;64741;41.730;44.788;2023-02-14T00:56:55;1000.9;;;20.9;35.1
76046;BME280;64741;41.730;44.788;2023-02-14T01:01:51;1000.8;;;20.9;35.2
76046;BME280;64741;41.730;44.788;2023-02-14T01:06:51;1000.6;;;20.9;35.2
76046;BME280;64741;41.730;44.788;2023-02-14T01:11:53;1000.5;;;20.9;34.9
76046;BME280;64741;41.730;44.788;2023-02-14T01:16:51;1000.5;;;20.8;34.8
76046;BME280;64741;41.730;44.788;2023-02-14T01:21:49;1000.5;;;20.8;34.8
76046;BME280;64741;41.730;44.788;2023-02-14T01:26:53;1000.5;;;20.8;34.8
76046;BME280;64741;41.730;44.788;2023-02-14T01:31:49;1000.6;;;20.8;35
76046;BME280;64741;41.730;44.788;2023-02-14T01:36:22;1000.6;;;20.8;34.8
76046;BME280;64741;41.730;44.788;2023-02-14T01:41:53;1000.6;;;20.8;34.6
76046;BME280;64741;41.730;44.788;2023-02-14T01:46:51;1000.7;;;20.8;34.8
76046;BME280;64741;41.730;44.788;2023-02-14T01:51:55;1000.7;;;20.8;34.5
76046;BME280;64741;41.730;44.788;2023-02-14T01:56:55;1000.7;;;20.8;34.4
76046;BME280;64741;41.730;44.788;2023-02-14T02:01:53;1000.8;;;20.7;34.3
76046;BME280;64741;41.730;44.788;2023-02-14T02:06:26;1000.8;;;20.7;34.2
76046;BME280;64741;41.730;44.788;2023-02-14T02:11:55;1000.8;;;20.7;34.4
76046;BME280;64741;41.730;44.788;2023-02-14T02:16:55;1000.9;;;20.7;34.4
76046;BME280;64741;41.730;44.788;2023-02-14T02:22:00;1000.8;;;20.7;34.5
76046;BME280;64741;41.730;44.788;2023-02-14T02:26:46;1000.7;;;20.7;34.4
76046;BME280;64741;41.730;44.788;2023-02-14T02:31:31;1000.6;;;20.7;34.4
76046;BME280;64741;41.730;44.788;2023-02-14T02:36:55;1000.6;;;20.7;34.4
76046;BME280;64741;41.730;44.788;2023-02-14T02:41:56;1000.6;;;20.7;34.4
76046;BME280;64741;41.730;44.788;2023-02-14T02:46:54;1000.7;;;20.7;34.5
76046;BME280;64741;41.730;44.788;2023-02-14T02:51:53;1000.7;;;20.7;34.4
76046;BME280;64741;41.730;44.788;2023-02-14T02:56:54;1000.8;;;20.7;34.4
76046;BME280;64741;41.730;44.788;2023-02-14T03:01:20;1000.9;;;20.6;34.5
76046;BME280;64741;41.730;44.788;2023-02-14T03:06:51;1000.9;;;20.6;34.5
76046;BME280;64741;41.730;44.788;2023-02-14T03:11:56;1000.9;;;20.6;34.6
76046;BME280;64741;41.730;44.788;2023-02-14T03:16:58;1000.9;;;20.6;34.7
76046;BME280;64741;41.730;44.788;2023-02-14T03:21:53;1000.9;;;20.7;35
76046;BME280;64741;41.730;44.788;2023-02-14T03:26:50;1000.9;;;20.7;35.1
76046;BME280;64741;41.730;44.788;2023-02-14T03:31:54;1000.8;;;20.7;34.9
76046;BME280;64741;41.730;44.788;2023-02-14T03:36:54;1000.8;;;20.7;34.8
76046;BME280;64741;41.730;44.788;2023-02-14T03:41:52;1000.6;;;20.7;35
76046;BME280;64741;41.730;44.788;2023-02-14T03:46:50;1000.4;;;20.6;35.1
76046;BME280;64741;41.730;44.788;2023-02-14T03:51:53;1000.2;;;20.6;34.7
76046;BME280;64741;41.730;44.788;2023-02-14T03:56:55;1000.3;;;20.6;34.7
76046;BME280;64741;41.730;44.788;2023-02-14T04:01:52;1000.4;;;20.6;34.8
76046;BME280;64741;41.730;44.788;2023-02-14T04:06:55;1000.6;;;20.6;34.9
76046;BME280;64741;41.730;44.788;2023-02-14T04:11:53;1000.7;;;20.6;35
76046;BME280;64741;41.730;44.788;2023-02-14T04:16:53;1000.8;;;20.6;34.5
76046;BME280;64741;41.730;44.788;2023-02-14T04:21:43;1000.8;;;20.6;34.6
76046;BME280;64741;41.730;44.788;2023-02-14T04:26:55;1000.8;;;20.6;34.6
76046;BME280;64741;41.730;44.788;2023-02-14T04:31:53;1000.7;;;20.5;34.5
76046;BME280;64741;41.730;44.788;2023-02-14T04:36:41;1000.8;;;20.5;34.4
76046;BME280;64741;41.730;44.788;2023-02-14T04:41:45;1000.9;;;20.5;34.3
76046;BME280;64741;41.730;44.788;2023-02-14T04:46:51;1000.9;;;20.5;34.5
76046;BME280;64741;41.730;44.788;2023-02-14T04:51:53;1000.9;;;20.5;34.4
76046;BME280;64741;41.730;44.788;2023-02-14T04:56:53;1000.9;;;20.5;34.5
76046;BME280;64741;41.730;44.788;2023-02-14T05:01:55;1001.1;;;20.5;34.3
76046;BME280;64741;41.730;44.788;2023-02-14T05:06:51;1001.1;;;20.5;34.3
76046;BME280;64741;41.730;44.788;2023-02-14T05:11:51;1001.1;;;20.5;34.5
76046;BME280;64741;41.730;44.788;2023-02-14T05:16:55;1001.1;;;20.5;34.6
76046;BME280;64741;41.730;44.788;2023-02-14T05:21:55;1001;;;20.5;34.6
76046;BME280;64741;41.730;44.788;2023-02-14T05:26:55;1000.9;;;20.5;34.5
76046;BME280;64741;41.730;44.788;2023-02-14T05:31:51;1000.9;;;20.6;34.7
76046;BME280;64741;41.730;44.788;2023-02-14T05:36:55;1000.8;;;20.6;34.8
76046;BME280;64741;41.730;44.788;2023-02-14T05:41:51;1000.7;;;20.5;34.3
76046;BME280;64741;41.730;44.788;2023-02-14T05:46:51;1000.8;;;20.6;34.4
76046;BME280;64741;41.730;44.788;2023-02-14T05:51:49;1000.8;;;20.5;34.3
76046;BME280;64741;41.730;44.788;2023-02-14T05:56:41;1000.8;;;20.5;34.5
76046;BME280;64741;41.730;44.788;2023-02-14T06:01:49;1000.7;;;20.5;34.6
76046;BME280;64741;41.730;44.788;2023-02-14T06:06:53;1000.7;;;20.5;34.5
76046;BME280;64741;41.730;44.788;2023-02-14T06:11:55;1000.7;;;20.5;34.5
76046;BME280;64741;41.730;44.788;2023-02-14T06:16:51;1000.7;;;20.5;34.6
76046;BME280;64741;41.730;44.788;2023-02-14T06:21:51;1000.6;;;20.5;34.6
76046;BME280;64741;41.730;44.788;2023-02-14T06:26:43;1000.5;;;20.5;34.6
76046;BME280;64741;41.730;44.788;2023-02-14T06:31:47;1000.5;;;20.5;34.7
76046;BME280;64741;41.730;44.788;2023-02-14T06:36:47;1000.5;;;20.5;34.7
76046;BME280;64741;41.730;44.788;2023-02-14T06:41:53;1000.5;;;20.5;34.7
76046;BME280;64741;41.730;44.788;2023-02-14T06:46:39;1000.5;;;20.5;34.7
76046;BME280;64741;41.730;44.788;2023-02-14T06:51:51;1000.5;;;20.5;35.1
76046;BME280;64741;41.730;44.788;2023-02-14T06:56:53;1000.4;;;20.5;35.4
76046;BME280;64741;41.730;44.788;2023-02-14T07:01:49;1000.4;;;20.6;35.5
76046;BME280;64741;41.730;44.788;2023-02-14T07:06:55;1000.3;;;20.7;35.7
76046;BME280;64741;41.730;44.788;2023-02-14T07:11:51;1000.2;;;20.8;35.7
76046;BME280;64741;41.730;44.788;2023-02-14T07:16:51;1000;;;20.8;35.7
76046;BME280;64741;41.730;44.788;2023-02-14T07:21:51;1000.1;;;20.9;36
76046;BME280;64741;41.730;44.788;2023-02-14T07:26:53;1000.1;;;20.9;37.1
76046;BME280;64741;41.730;44.788;2023-02-14T07:31:53;1000.1;;;21;38.6
76046;BME280;64741;41.730;44.788;2023-02-14T07:36:51;1000;;;21.1;39.7
76046;BME280;64741;41.730;44.788;2023-02-14T07:41:51;999.9;;;21.2;40.3
76046;BME280;64741;41.730;44.788;2023-02-14T07:46:51;999.8;;;21.2;40.2
76046;BME280;64741;41.730;44.788;2023-02-14T07:51:49;999.7;;;21.2;39.2
76046;BME280;64741;41.730;44.788;2023-02-14T07:56:51;999.5;;;21.3;38.8
76046;BME280;64741;41.730;44.788;2023-02-14T08:01:51;999.4;;;21.3;38.2
76046;BME280;64741;41.730;44.788;2023-02-14T08:06:53;999.3;;;21.3;38.1
76046;BME280;64741;41.730;44.788;2023-02-14T08:11:41;999.3;;;21.3;37.8
76046;BME280;64741;41.730;44.788;2023-02-14T08:16:53;999.2;;;21.4;37.6
76046;BME280;64741;41.730;44.788;2023-02-14T08:21:51;999.1;;;21.4;37.5
76046;BME280;64741;41.730;44.788;2023-02-14T08:26:55;999.1;;;21.4;37.1
76046;BME280;64741;41.730;44.788;2023-02-14T08:31:51;999;;;21.4;36.9
76046;BME280;64741;41.730;44.788;2023-02-14T08:36:53;999;;;21.4;36.5
76046;BME280;64741;41.730;44.788;2023-02-14T08:41:53;998.9;;;21.4;36.5
76046;BME280;64741;41.730;44.788;2023-02-14T08:46:53;999;;;21.4;36.5
76046;BME280;64741;41.730;44.788;2023-02-14T08:51:55;999;;;21.4;36.3
76046;BME280;64741;41.730;44.788;2023-02-14T08:56:55;998.8;;;21.5;36.2
76046;BME280;64741;41.730;44.788;2023-02-14T09:01:49;998.7;;;21.5;36.2
76046;BME280;64741;41.730;44.788;2023-02-14T09:06:51;998.6;;;21.5;36.2
76046;BME280;64741;41.730;44.788;2023-02-14T09:11:55;998.4;;;21.5;35.9
76046;BME280;64741;41.730;44.788;2023-02-14T09:16:25;998.3;;;21.6;35.6
76046;BME280;64741;41.730;44.788;2023-02-14T09:21:53;998.2;;;21.6;35.6
76046;BME280;64741;41.730;44.788;2023-02-14T09:26:53;998.1;;;21.6;35.6
76046;BME280;64741;41.730;44.788;2023-02-14T09:31:51;997.9;;;21.6;35.3
76046;BME280;64741;41.730;44.788;2023-02-14T09:36:53;997.8;;;21.7;35.2
76046;BME280;64741;41.730;44.788;2023-02-14T09:41:48;997.7;;;21.7;35
76046;BME280;64741;41.730;44.788;2023-02-14T09:46:53;997.6;;;21.7;35.1
76046;BME280;64741;41.730;44.788;2023-02-14T09:51:53;997.6;;;21.7;34.9
76046;BME280;64741;41.730;44.788;2023-02-14T09:56:52;997.4;;;21.7;35
76046;BME280;64741;41.730;44.788;2023-02-14T10:01:52;997.3;;;21.7;34.8
76046;BME280;64741;41.730;44.788;2023-02-14T10:06:54;997.3;;;21.8;34.8
76046;BME280;64741;41.730;44.788;2023-02-14T10:11:39;997.2;;;21.8;34.7
76046;BME280;64741;41.730;44.788;2023-02-14T10:16:52;997.1;;;21.8;34.7
76046;BME280;64741;41.730;44.788;2023-02-14T10:21:54;996.9;;;21.8;34.4
76046;BME280;64741;41.730;44.788;2023-02-14T10:26:56;996.8;;;21.7;34.5
76046;BME280;64741;41.730;44.788;2023-02-14T10:31:54;996.6;;;21.7;34.5
76046;BME280;64741;41.730;44.788;2023-02-14T10:36:55;996.6;;;21.7;34.3
76046;BME280;64741;41.730;44.788;2023-02-14T10:41:54;996.4;;;21.7;34.6
76046;BME280;64741;41.730;44.788;2023-02-14T10:46:55;996.3;;;21.7;34.7
76046;BME280;64741;41.730;44.788;2023-02-14T10:51:54;996.2;;;21.7;34.8
76046;BME280;64741;41.730;44.788;2023-02-14T10:56:58;996.2;;;21.8;34.6
76046;BME280;64741;41.730;44.788;2023-02-14T11:01:55;996.2;;;21.8;34.7
76046;BME280;64741;41.730;44.788;2023-02-14T11:06:51;996.2;;;21.7;34.7
76046;BME280;64741;41.730;44.788;2023-02-14T11:11:52;996;;;21.7;34.8
76046;BME280;64741;41.730;44.788;2023-02-14T11:16:55;995.8;;;21.6;34.8
76046;BME280;64741;41.730;44.788;2023-02-14T11:21:54;995.7;;;21.6;35
76046;BME280;64741;41.730;44.788;2023-02-14T11:26:54;995.6;;;21.5;34.8
76046;BME280;64741;41.730;44.788;2023-02-14T11:31:55;995.5;;;21.5;35
76046;BME280;64741;41.730;44.788;2023-02-14T11:36:21;995.5;;;21.4;36
76046;BME280;64741;41.730;44.788;2023-02-14T11:41:54;995.4;;;21.4;37
76046;BME280;64741;41.730;44.788;2023-02-14T11:46:54;995.3;;;21.5;38
76046;BME280;64741;41.730;44.788;2023-02-14T11:51:56;995.2;;;21.5;38.1
76046;BME280;64741;41.730;44.788;2023-02-14T11:56:42;995;;;21.5;38
76046;BME280;64741;41.730;44.788;2023-02-14T12:01:51;995;;;21.6;37.9
76046;BME280;64741;41.730;44.788;2023-02-14T12:06:41;995;;;21.6;37.8
76046;BME280;64741;41.730;44.788;2023-02-14T12:11:53;995;;;21.6;37.6
76046;BME280;64741;41.730;44.788;2023-02-14T12:16:51;994.9;;;21.7;37.6
76046;BME280;64741;41.730;44.788;2023-02-14T12:21:10;994.9;;;21.7;37.8
76046;BME280;64741;41.730;44.788;2023-02-14T12:26:53;994.9;;;21.7;38.1
76046;BME280;64741;41.730;44.788;2023-02-14T12:31:41;994.8;;;21.7;38.8
76046;BME280;64741;41.730;44.788;2023-02-14T12:36:59;994.8;;;21.7;39.8
76046;BME280;64741;41.730;44.788;2023-02-14T12:41:57;994.8;;;21.7;41.4
76046;BME280;64741;41.730;44.788;2023-02-14T12:46:56;994.8;;;21.7;42.4
76046;BME280;64741;41.730;44.788;2023-02-14T12:51:09;994.7;;;21.8;43.6
76046;BME280;64741;41.730;44.788;2023-02-14T12:56:57;994.7;;;21.8;44.4
76046;BME280;64741;41.730;44.788;2023-02-14T13:01:58;994.7;;;21.8;45.1
76046;BME280;64741;41.730;44.788;2023-02-14T13:06:52;994.6;;;21.9;45.8
76046;BME280;64741;41.730;44.788;2023-02-14T13:11:56;994.6;;;21.9;45.6
76046;BME280;64741;41.730;44.788;2023-02-14T13:16:54;994.5;;;21.9;45.3
76046;BME280;64741;41.730;44.788;2023-02-14T13:21:51;994.5;;;21.9;44.2
76046;BME280;64741;41.730;44.788;2023-02-14T13:26:54;994.4;;;21.9;43.4
76046;BME280;64741;41.730;44.788;2023-02-14T13:31:55;994.4;;;21.8;42.7
76046;BME280;64741;41.730;44.788;2023-02-14T13:36:49;994.4;;;21.8;42.2
76046;BME280;64741;41.730;44.788;2023-02-14T13:41:55;994.4;;;21.8;41.8
76046;BME280;64741;41.730;44.788;2023-02-14T13:46:54;994.3;;;21.8;41.4
76046;BME280;64741;41.730;44.788;2023-02-14T13:51:57;994.3;;;21.8;41.1
76046;BME280;64741;41.730;44.788;2023-02-14T13:56:53;994.3;;;21.7;40.9
76046;BME280;64741;41.730;44.788;2023-02-14T14:01:53;994.3;;;21.7;40.6
76046;BME280;64741;41.730;44.788;2023-02-14T14:07:24;994.3;;;21.6;40.4
76046;BME280;64741;41.730;44.788;2023-02-14T14:11:55;994.3;;;21.7;40.1
76046;BME280;64741;41.730;44.788;2023-02-14T14:16:55;994.3;;;21.7;39.9
76046;BME280;64741;41.730;44.788;2023-02-14T14:21:59;994.3;;;21.7;39.8
76046;BME280;64741;41.730;44.788;2023-02-14T14:26:56;994.3;;;21.7;39.5
76046;BME280;64741;41.730;44.788;2023-02-14T14:31:51;994.3;;;21.7;39.4
76046;BME280;64741;41.730;44.788;2023-02-14T14:37:01;994.4;;;21.7;39.3
76046;BME280;64741;41.730;44.788;2023-02-14T14:41:53;994.4;;;21.7;39.2
76046;BME280;64741;41.730;44.788;2023-02-14T14:46:57;994.4;;;21.7;39.2
76046;BME280;64741;41.730;44.788;2023-02-14T14:51:55;994.4;;;21.7;39.1
76046;BME280;64741;41.730;44.788;2023-02-14T14:56:46;994.4;;;21.8;39
76046;BME280;64741;41.730;44.788;2023-02-14T15:01:51;994.4;;;21.8;38.9
76046;BME280;64741;41.730;44.788;2023-02-14T15:06:54;994.4;;;21.7;38.8
76046;BME280;64741;41.730;44.788;2023-02-14T15:11:50;994.5;;;21.8;38.7
76046;BME280;64741;41.730;44.788;2023-02-14T15:16:50;994.5;;;21.7;38.8
76046;BME280;64741;41.730;44.788;2023-02-14T15:21:51;994.5;;;21.7;38.8
76046;BME280;64741;41.730;44.788;2023-02-14T15:26:55;994.4;;;21.7;38.9
76046;BME280;64741;41.730;44.788;2023-02-14T15:31:54;994.4;;;21.6;38.7
76046;BME280;64741;41.730;44.788;2023-02-14T15:36:51;994.4;;;21.6;38.6
76046;BME280;64741;41.730;44.788;2023-02-14T15:41:51;994.4;;;21.6;38.4
76046;BME280;64741;41.730;44.788;2023-02-14T15:46:56;994.4;;;21.6;38.4
76046;BME280;64741;41.730;44.788;2023-02-14T15:51:51;994.4;;;21.5;38.3
76046;BME280;64741;41.730;44.788;2023-02-14T15:56:55;994.4;;;21.5;38.3
76046;BME280;64741;41.730;44.788;2023-02-14T16:01:52;994.3;;;21.5;38.3
76046;BME280;64741;41.730;44.788;2023-02-14T16:06:40;994.3;;;21.5;38.3
76046;BME280;64741;41.730;44.788;2023-02-14T16:11:55;994.3;;;21.5;38.3
76046;BME280;64741;41.730;44.788;2023-02-14T16:16:57;994.3;;;21.5;38.4
76046;BME280;64741;41.730;44.788;2023-02-14T16:21:55;994.4;;;21.5;38.5
76046;BME280;64741;41.730;44.788;2023-02-14T16:26:53;994.3;;;21.5;38.4
76046;BME280;64741;41.730;44.788;2023-02-14T16:31:55;994.3;;;21.5;38.4
76046;BME280;64741;41.730;44.788;2023-02-14T16:36:49;994.2;;;21.5;38.4
76046;BME280;64741;41.730;44.788;2023-02-14T16:41:52;994.2;;;21.5;38.4
76046;BME280;64741;41.730;44.788;2023-02-14T16:46:41;994.2;;;21.5;38.2
76046;BME280;64741;41.730;44.788;2023-02-14T16:51:53;994.2;;;21.5;38.1
76046;BME280;64741;41.730;44.788;2023-02-14T16:56:54;994.2;;;21.5;38.1
76046;BME280;64741;41.730;44.788;2023-02-14T17:01:51;994.1;;;21.5;38.2
76046;BME280;64741;41.730;44.788;2023-02-14T17:06:53;994.1;;;21.5;38.2
76046;BME280;64741;41.730;44.788;2023-02-14T17:11:44;994;;;21.5;38.3
76046;BME280;64741;41.730;44.788;2023-02-14T17:16:49;994;;;21.5;38.3
76046;BME280;64741;41.730;44.788;2023-02-14T17:21:55;994;;;21.5;38.3
76046;BME280;64741;41.730;44.788;2023-02-14T17:26:53;994;;;21.5;38.2
76046;BME280;64741;41.730;44.788;2023-02-14T17:31:49;994;;;21.5;38.1
76046;BME280;64741;41.730;44.788;2023-02-14T17:36:53;994;;;21.5;38
76046;BME280;64741;41.730;44.788;2023-02-14T17:41:53;994;;;21.5;37.9
76046;BME280;64741;41.730;44.788;2023-02-14T17:46:51;993.9;;;21.5;37.9
76046;BME280;64741;41.730;44.788;2023-02-14T17:51:49;993.9;;;21.4;37.8
76046;BME280;64741;41.730;44.788;2023-02-14T17:56:53;993.8;;;21.4;37.8
76046;BME280;64741;41.730;44.788;2023-02-14T18:01:55;993.8;;;21.4;37.8
76046;BME280;64741;41.730;44.788;2023-02-14T18:06:53;993.9;;;21.4;37.8
76046;BME280;64741;41.730;44.788;2023-02-14T18:11:53;993.8;;;21.4;37.8
76046;BME280;64741;41.730;44.788;2023-02-14T18:16:53;993.9;;;21.4;37.8
76046;BME280;64741;41.730;44.788;2023-02-14T18:21:51;993.8;;;21.3;37.9
76046;BME280;64741;41.730;44.788;2023-02-14T18:26:41;993.8;;;21.3;37.9
76046;BME280;64741;41.730;44.788;2023-02-14T18:31:53;993.8;;;21.3;37.9
76046;BME280;64741;41.730;44.788;2023-02-14T18:36:53;993.7;;;21.3;37.8
76046;BME280;64741;41.730;44.788;2023-02-14T18:41:53;993.6;;;21.3;37.9
76046;BME280;64741;41.730;44.788;2023-02-14T18:46:53;993.6;;;21.3;38
76046;BME280;64741;41.730;44.788;2023-02-14T18:51:53;993.5;;;21.3;38
76046;BME280;64741;41.730;44.788;2023-02-14T18:56:24;993.4;;;21.3;38.1
76046;BME280;64741;41.730;44.788;2023-02-14T19:01:52;993.4;;;21.3;38.2
76046;BME280;64741;41.730;44.788;2023-02-14T19:06:32;993.3;;;21.3;38.1
76046;BME280;64741;41.730;44.788;2023-02-14T19:11:53;993.3;;;21.4;38.2
76046;BME280;64741;41.730;44.788;2023-02-14T19:16:51;993.3;;;21.3;38.2
76046;BME280;64741;41.730;44.788;2023-02-14T19:21:56;993.3;;;21.4;38.2
76046;BME280;64741;41.730;44.788;2023-02-14T19:26:53;993.2;;;21.4;38.2
76046;BME280;64741;41.730;44.788;2023-02-14T19:31:51;993.2;;;21.4;38.2
76046;BME280;64741;41.730;44.788;2023-02-14T19:36:53;993.2;;;21.4;38.2
76046;BME280;64741;41.730;44.788;2023-02-14T19:41:49;993.2;;;21.3;38.2
76046;BME280;64741;41.730;44.788;2023-02-14T19:46:53;993.1;;;21.4;38.2
76046;BME280;64741;41.730;44.788;2023-02-14T19:51:49;993.1;;;21.4;38.2
76046;BME280;64741;41.730;44.788;2023-02-14T19:56:53;993;;;21.4;38.1
76046;BME280;64741;41.730;44.788;2023-02-14T20:01:50;993;;;21.4;38.1
76046;BME280;64741;41.730;44.788;2023-02-14T20:06:53;993;;;21.4;38
76046;BME280;64741;41.730;44.788;2023-02-14T20:11:51;993;;;21.4;38
76046;BME280;64741;41.730;44.788;2023-02-14T20:16:56;992.9;;;21.4;37.9
76046;BME280;64741;41.730;44.788;2023-02-14T20:21:51;992.9;;;21.4;37.8
76046;BME280;64741;41.730;44.788;2023-02-14T20:26:51;992.9;;;21.4;37.9
76046;BME280;64741;41.730;44.788;2023-02-14T20:31:52;992.9;;;21.4;37.9
76046;BME280;64741;41.730;44.788;2023-02-14T20:36:47;992.9;;;21.4;37.9
76046;BME280;64741;41.730;44.788;2023-02-14T20:41:43;992.9;;;21.4;37.8
76046;BME280;64741;41.730;44.788;2023-02-14T20:46:54;992.9;;;21.4;37.8
76046;BME280;64741;41.730;44.788;2023-02-14T20:51:47;992.8;;;21.4;37.8
76046;BME280;64741;41.730;44.788;2023-02-14T20:56:49;992.7;;;21.4;37.8
76046;BME280;64741;41.730;44.788;2023-02-14T21:01:53;992.7;;;21.4;37.8
76046;BME280;64741;41.730;44.788;2023-02-14T21:06:39;992.7;;;21.4;37.8
76046;BME280;64741;41.730;44.788;2023-02-14T21:11:51;992.6;;;21.4;37.8
76046;BME280;64741;41.730;44.788;2023-02-14T21:16:51;992.6;;;21.4;37.7
76046;BME280;64741;41.730;44.788;2023-02-14T21:21:51;992.5;;;21.4;37.8
76046;BME280;64741;41.730;44.788;2023-02-14T21:26:53;992.5;;;21.4;37.8
76046;BME280;64741;41.730;44.788;2023-02-14T21:31:47;992.5;;;21.4;37.9
76046;BME280;64741;41.730;44.788;2023-02-14T21:36:49;992.5;;;21.4;37.9
76046;BME280;64741;41.730;44.788;2023-02-14T21:41:55;992.5;;;21.4;37.9
76046;BME280;64741;41.730;44.788;2023-02-14T21:46:47;992.4;;;21.4;37.9
76046;BME280;64741;41.730;44.788;2023-02-14T21:51:55;992.4;;;21.4;37.7
76046;BME280;64741;41.730;44.788;2023-02-14T21:56:53;992.3;;;21.4;37.7
76046;BME280;64741;41.730;44.788;2023-02-14T22:01:47;992.3;;;21.4;37.5
76046;BME280;64741;41.730;44.788;2023-02-14T22:06:51;992.3;;;21.4;37.6
76046;BME280;64741;41.730;44.788;2023-02-14T22:11:49;992.2;;;21.3;37.7
76046;BME280;64741;41.730;44.788;2023-02-14T22:16:51;992.2;;;21.3;37.9
76046;BME280;64741;41.730;44.788;2023-02-14T22:21:51;992.2;;;21.3;37.5
76046;BME280;64741;41.730;44.788;2023-02-14T22:26:49;992.2;;;21.3;37.2
76046;BME280;64741;41.730;44.788;2023-02-14T22:31:49;992.2;;;21.3;37.6
76046;BME280;64741;41.730;44.788;2023-02-14T22:36:55;992.1;;;21.3;37.5
76046;BME280;64741;41.730;44.788;2023-02-14T22:41:49;992;;;21.2;37.6
76046;BME280;64741;41.730;44.788;2023-02-14T22:46:55;992;;;21.2;37.7
76046;BME280;64741;41.730;44.788;2023-02-14T22:51:55;992;;;21.2;37.7
76046;BME280;64741;41.730;44.788;2023-02-14T22:56:49;992;;;21.2;37.5
76046;BME280;64741;41.730;44.788;2023-02-14T23:01:44;992;;;21.2;37.4
76046;BME280;64741;41.730;44.788;2023-02-14T23:06:55;991.9;;;21.2;37.2
76046;BME280;64741;41.730;44.788;2023-02-14T23:11:49;991.9;;;21.1;36.9
76046;BME280;64741;41.730;44.788;2023-02-14T23:16:49;991.8;;;21.1;36.9
76046;BME280;64741;41.730;44.788;2023-02-14T23:21:55;991.8;;;21.1;36.8
76046;BME280;64741;41.730;44.788;2023-02-14T23:26:47;991.8;;;21.1;36.8
76046;BME280;64741;41.730;44.788;2023-02-14T23:31:49;991.7;;;21.1;36.7
76046;BME280;64741;41.730;44.788;2023-02-14T23:36:49;991.7;;;21.1;36.7
76046;BME280;64741;41.730;44.788;2023-02-14T23:41:55;991.6;;;21.1;36.9
76046;BME280;64741;41.730;44.788;2023-02-14T23:46:52;991.6;;;21.1;37
76046;BME280;64741;41.730;44.788;2023-02-14T23:51:41;991.5;;;21.1;36.7
76046;BME280;64741;41.730;44.788;2023-02-14T23:56:53;991.5;;;21.1;36.8
